createdAt,value
2022-08-18T00:01:14.905Z,98134.84
2022-08-18T00:03:56.673Z,98133.69
2022-08-18T00:06:29.542Z,98126.09
2022-08-18T00:08:59.926Z,98122.09
2022-08-18T00:11:41.071Z,98125.78
2022-08-18T00:14:22.750Z,98120.84
2022-08-18T00:16:53.520Z,98129.38
2022-08-18T00:19:43.518Z,98132.06
2022-08-18T00:22:15.283Z,98129.97
2022-08-18T00:24:48.581Z,98127.84
2022-08-18T00:27:23.776Z,98129.91
2022-08-18T00:29:58.236Z,98134.34
2022-08-18T00:32:30.188Z,98129.16
2022-08-18T00:34:57.015Z,98122.91
2022-08-18T00:37:24.720Z,98116.34
2022-08-18T00:39:53.866Z,98119.00
2022-08-18T00:42:30.722Z,98115.94
2022-08-18T00:45:01.162Z,98120.56
2022-08-18T00:47:33.013Z,98124.47
2022-08-18T00:50:15.768Z,98137.53
2022-08-18T00:52:53.677Z,98129.66
2022-08-18T00:55:23.682Z,98127.84
2022-08-18T00:57:55.899Z,98125.31
2022-08-18T01:00:22.820Z,98138.19
2022-08-18T01:02:58.931Z,98138.00
2022-08-18T01:05:41.177Z,98139.16
2022-08-18T01:08:14.296Z,98147.00
2022-08-18T01:10:42.475Z,98152.31
2022-08-18T01:13:10.257Z,98162.75
2022-08-18T01:15:37.887Z,98161.88
2022-08-18T01:18:29.475Z,98160.44
2022-08-18T01:21:23.760Z,98163.44
2022-08-18T01:23:53.544Z,98163.72
2022-08-18T01:26:22.653Z,98161.56
2022-08-18T01:28:50.556Z,98158.31
2022-08-18T01:31:53.296Z,98163.44
2022-08-18T01:34:25.592Z,98164.03
2022-08-18T01:36:54.823Z,98163.09
2022-08-18T01:41:17.269Z,98164.84
2022-08-18T01:42:11.298Z,98170.75
2022-08-18T01:44:41.464Z,98178.16
2022-08-18T01:47:10.890Z,98173.47
2022-08-18T01:49:43.136Z,98174.28
2022-08-18T01:52:18.196Z,98171.09
2022-08-18T01:54:44.827Z,98166.22
2022-08-18T01:57:13.390Z,98171.56
2022-08-18T01:59:42.391Z,98160.94
2022-08-18T02:02:18.475Z,98153.69
2022-08-18T02:04:47.352Z,98149.13
2022-08-18T02:07:14.894Z,98145.09
2022-08-18T02:09:43.674Z,98144.69
2022-08-18T02:12:11.276Z,98138.81
2022-08-18T02:14:39.282Z,98135.34
2022-08-18T02:17:08.908Z,98126.94
2022-08-18T02:19:40.264Z,98127.78
2022-08-18T02:22:10.531Z,98131.44
2022-08-18T02:24:38.283Z,98133.91
2022-08-18T02:27:06.104Z,98129.06
2022-08-18T02:29:33.289Z,98133.97
2022-08-18T02:31:59.819Z,98128.03
2022-08-18T02:34:26.457Z,98136.22
2022-08-18T02:36:53.062Z,98137.84
2022-08-18T02:39:20.324Z,98141.06
2022-08-18T02:41:47.121Z,98146.94
2022-08-18T02:44:14.319Z,98142.22
2022-08-18T02:46:40.924Z,98140.84
2022-08-18T02:49:08.030Z,98133.56
2022-08-18T02:51:34.934Z,98132.59
2022-08-18T02:54:01.652Z,98137.94
2022-08-18T02:56:41.575Z,98138.13
2022-08-18T02:59:15.195Z,98133.69
2022-08-18T03:01:46.317Z,98135.28
2022-08-18T03:04:17.600Z,98133.75
2022-08-18T03:06:46.307Z,98139.84
2022-08-18T03:09:18.434Z,98143.88
2022-08-18T03:11:45.947Z,98144.81
2022-08-18T03:14:14.482Z,98147.03
2022-08-18T03:16:53.597Z,98147.25
2022-08-18T03:19:29.030Z,98139.31
2022-08-18T03:21:59.416Z,98141.44
2022-08-18T03:24:29.885Z,98148.00
2022-08-18T03:26:57.219Z,98146.06
2022-08-18T03:29:29.482Z,98146.34
2022-08-18T03:31:57.661Z,98143.56
2022-08-18T03:34:24.228Z,98151.41
2022-08-18T03:36:51.993Z,98153.47
2022-08-18T03:39:22.831Z,98146.47
2022-08-18T03:41:59.798Z,98158.19
2022-08-18T03:44:36.966Z,98159.72
2022-08-18T03:47:07.976Z,98158.50
2022-08-18T03:49:35.456Z,98160.00
2022-08-18T03:52:03.509Z,98163.09
2022-08-18T03:54:34.158Z,98165.22
2022-08-18T03:57:01.385Z,98169.25
2022-08-18T03:59:30.614Z,98165.91
2022-08-18T04:01:57.350Z,98165.63
2022-08-18T04:04:28.218Z,98161.16
2022-08-18T04:07:00.547Z,98155.84
2022-08-18T04:09:30.778Z,98150.28
2022-08-18T04:12:02.656Z,98152.97
2022-08-18T04:14:31.476Z,98150.72
2022-08-18T04:16:59.650Z,98158.66
2022-08-18T04:19:27.814Z,98152.38
2022-08-18T04:21:57.713Z,98154.50
2022-08-18T04:24:28.263Z,98141.66
2022-08-18T04:27:00.780Z,98136.63
2022-08-18T04:29:28.451Z,98143.34
2022-08-18T04:31:55.274Z,98145.28
2022-08-18T04:34:23.094Z,98134.56
2022-08-18T04:36:54.261Z,98145.44
2022-08-18T04:39:22.785Z,98132.56
2022-08-18T04:41:50.654Z,98147.25
2022-08-18T04:44:18.202Z,98149.47
2022-08-18T04:46:51.796Z,98149.75
2022-08-18T04:49:23.931Z,98145.00
2022-08-18T04:52:37.404Z,98148.50
2022-08-18T04:54:56.354Z,98146.13
2022-08-18T04:57:23.972Z,98153.38
2022-08-18T04:59:52.372Z,98153.53
2022-08-18T05:02:21.613Z,98158.81
2022-08-18T05:04:48.754Z,98153.91
2022-08-18T05:07:20.531Z,98157.97
2022-08-18T05:09:47.150Z,98159.06
2022-08-18T05:12:16.124Z,98165.38
2022-08-18T05:14:45.291Z,98161.31
2022-08-18T05:17:14.870Z,98159.06
2022-08-18T05:19:44.346Z,98153.19
2022-08-18T05:22:19.286Z,98153.19
2022-08-18T05:24:52.837Z,98146.94
2022-08-18T05:27:19.692Z,98154.78
2022-08-18T05:29:46.449Z,98166.50
2022-08-18T05:32:37.310Z,98165.91
2022-08-18T05:35:18.743Z,98172.31
2022-08-18T05:38:26.481Z,98173.41
2022-08-18T05:41:14.275Z,98172.28
2022-08-18T05:43:51.481Z,98176.13
2022-08-18T05:46:26.274Z,98165.38
2022-08-18T05:48:52.828Z,98177.47
2022-08-18T05:51:41.064Z,98173.25
2022-08-18T05:54:28.355Z,98181.88
2022-08-18T05:57:05.316Z,98185.63
2022-08-18T05:59:37.201Z,98181.81
2022-08-18T06:02:36.672Z,98188.28
2022-08-18T06:05:12.994Z,98191.03
2022-08-18T06:07:56.871Z,98197.25
2022-08-18T06:10:24.815Z,98196.63
2022-08-18T06:13:01.798Z,98202.84
2022-08-18T06:15:52.790Z,98194.41
2022-08-18T06:18:49.310Z,98205.22
2022-08-18T06:21:57.127Z,98198.06
2022-08-18T06:24:44.308Z,98198.53
2022-08-18T06:27:20.651Z,98203.09
2022-08-18T06:30:24.635Z,98204.19
2022-08-18T06:33:06.579Z,98202.28
2022-08-18T06:35:58.545Z,98201.53
2022-08-18T06:38:55.113Z,98202.69
2022-08-18T06:41:40.732Z,98205.44
2022-08-18T06:44:32.324Z,98196.63
2022-08-18T06:47:11.289Z,98200.19
2022-08-18T06:49:46.597Z,98202.75
2022-08-18T06:53:02.159Z,98201.31
2022-08-18T06:55:45.759Z,98199.00
2022-08-18T06:58:12.179Z,98197.25
2022-08-18T07:00:46.297Z,98196.28
2022-08-18T07:03:21.794Z,98188.78
2022-08-18T07:06:14.066Z,98180.69
2022-08-18T07:08:45.233Z,98176.06
2022-08-18T07:11:21.979Z,98180.66
2022-08-18T07:14:09.584Z,98181.03
2022-08-18T07:16:57.873Z,98188.75
2022-08-18T07:19:30.795Z,98183.81
2022-08-18T07:22:04.546Z,98190.72
2022-08-18T07:24:44.662Z,98196.22
2022-08-18T07:27:21.646Z,98200.63
2022-08-18T07:30:15.335Z,98200.66
2022-08-18T07:33:00.030Z,98207.97
2022-08-18T07:35:39.250Z,98204.50
2022-08-18T07:38:41.971Z,98209.03
2022-08-18T07:41:22.732Z,98220.94
2022-08-18T07:44:00.594Z,98219.13
2022-08-18T07:46:38.609Z,98224.81
2022-08-18T07:49:07.029Z,98226.19
2022-08-18T07:52:43.923Z,98236.72
2022-08-18T07:55:29.005Z,98239.41
2022-08-18T07:58:23.331Z,98239.09
2022-08-18T08:01:00.000Z,98234.59
2022-08-18T08:03:55.651Z,98243.94
2022-08-18T08:06:40.981Z,98245.78
2022-08-18T08:09:46.119Z,98247.81
2022-08-18T08:13:12.380Z,98255.13
2022-08-18T08:16:12.401Z,98255.63
2022-08-18T08:20:00.433Z,98253.28
2022-08-18T08:22:38.406Z,98258.94
2022-08-18T08:28:46.923Z,98259.94
2022-08-18T08:32:04.052Z,98272.66
2022-08-18T08:34:48.659Z,98274.81
2022-08-18T08:37:24.417Z,98274.31
2022-08-18T08:40:00.555Z,98277.81
2022-08-18T08:42:58.547Z,98284.84
2022-08-18T08:45:32.260Z,98294.03
2022-08-18T08:48:56.335Z,98293.69
2022-08-18T08:51:34.852Z,98295.00
2022-08-18T08:54:31.395Z,98291.00
2022-08-18T08:57:02.062Z,98289.84
2022-08-18T08:59:28.686Z,98283.66
2022-08-18T09:02:32.011Z,98287.66
2022-08-18T09:05:13.819Z,98290.31
2022-08-18T09:08:32.663Z,98289.28
2022-08-18T09:11:57.946Z,98287.66
2022-08-18T09:14:57.060Z,98277.78
2022-08-18T09:18:08.947Z,98286.31
2022-08-18T09:20:56.922Z,98291.66
2022-08-18T09:23:34.163Z,98292.34
2022-08-18T09:26:41.448Z,98290.63
2022-08-18T09:29:16.615Z,98278.44
2022-08-18T09:31:46.561Z,98283.59
2022-08-18T09:35:02.619Z,98283.75
2022-08-18T09:38:17.458Z,98281.75
2022-08-18T09:41:26.520Z,98276.38
2022-08-18T09:44:35.128Z,98274.31
2022-08-18T09:47:02.284Z,98272.44
2022-08-18T09:49:29.102Z,98274.44
2022-08-18T09:52:24.128Z,98268.41
2022-08-18T09:55:17.896Z,98265.72
2022-08-18T09:57:46.574Z,98263.66
2022-08-18T10:00:29.589Z,98260.28
2022-08-18T10:02:57.201Z,98255.34
2022-08-18T10:05:31.028Z,98260.09
2022-08-18T10:11:09.362Z,98250.59
2022-08-18T10:14:07.770Z,98239.53
2022-08-18T10:17:21.353Z,98242.69
2022-08-18T10:20:07.921Z,98236.75
2022-08-18T10:22:54.484Z,98234.47
2022-08-18T10:25:46.306Z,98225.97
2022-08-18T10:28:54.278Z,98222.34
2022-08-18T10:34:19.401Z,98229.66
2022-08-18T10:36:53.054Z,98227.25
2022-08-18T10:39:42.835Z,98226.63
2022-08-18T10:42:33.687Z,98227.81
2022-08-18T10:45:13.737Z,98218.28
2022-08-18T10:51:30.456Z,98221.44
2022-08-18T10:54:54.897Z,98222.72
2022-08-18T10:57:39.496Z,98216.47
2022-08-18T11:00:21.255Z,98222.75
2022-08-18T11:03:51.951Z,98223.47
2022-08-18T11:06:21.716Z,98214.94
2022-08-18T11:08:55.328Z,98226.00
2022-08-18T11:11:38.075Z,98222.88
2022-08-18T11:14:31.488Z,98212.97
2022-08-18T11:17:28.127Z,98218.06
2022-08-18T11:19:55.994Z,98223.72
2022-08-18T11:22:35.568Z,98220.97
2022-08-18T11:25:19.119Z,98215.06
2022-08-18T11:27:48.723Z,98209.03
2022-08-18T11:30:17.230Z,98190.88
2022-08-18T11:32:51.763Z,98182.03
2022-08-18T11:35:27.476Z,98187.03
2022-08-18T11:38:03.212Z,98180.13
2022-08-18T11:43:38.897Z,98184.41
2022-08-18T11:46:29.282Z,98181.16
2022-08-18T11:49:00.735Z,98178.38
2022-08-18T11:51:34.157Z,98179.19
2022-08-18T11:54:21.824Z,98174.28
2022-08-18T11:56:50.326Z,98166.75
2022-08-18T11:59:53.118Z,98168.41
2022-08-18T12:02:18.143Z,98158.47
2022-08-18T12:04:52.898Z,98160.13
2022-08-18T12:07:30.759Z,98168.31
2022-08-18T12:10:26.313Z,98168.81
2022-08-18T12:12:59.808Z,98172.38
2022-08-18T12:15:43.843Z,98177.09
2022-08-18T12:18:25.922Z,98191.41
2022-08-18T12:20:58.029Z,98220.63
2022-08-18T12:23:24.938Z,98241.38
2022-08-18T12:28:39.381Z,98236.47
2022-08-18T12:31:14.922Z,98216.94
2022-08-18T12:34:00.856Z,98198.00
2022-08-18T12:36:29.740Z,98193.13
2022-08-18T12:38:57.109Z,98179.53
2022-08-18T12:41:24.358Z,98177.44
2022-08-18T12:43:59.138Z,98179.97
2022-08-18T12:46:27.014Z,98179.41
2022-08-18T12:48:53.831Z,98165.78
2022-08-18T12:51:24.823Z,98157.50
2022-08-18T12:53:58.272Z,98162.91
2022-08-18T12:56:31.582Z,98151.59
2022-08-18T12:59:04.496Z,98150.81
2022-08-18T13:01:37.326Z,98139.03
2022-08-18T13:04:12.393Z,98139.06
2022-08-18T13:06:58.894Z,98141.38
2022-08-18T13:09:35.285Z,98135.03
2022-08-18T13:12:17.119Z,98135.09
2022-08-18T13:14:45.283Z,98139.91
2022-08-18T13:17:29.973Z,98142.56
2022-08-18T13:20:01.251Z,98131.59
2022-08-18T13:22:32.144Z,98129.34
2022-08-18T13:25:06.915Z,98124.78
2022-08-18T13:27:35.916Z,98129.31
2022-08-18T13:30:30.081Z,98127.78
2022-08-18T13:33:05.384Z,98126.66
2022-08-18T13:35:47.846Z,98131.22
2022-08-18T13:38:25.864Z,98138.47
2022-08-18T13:40:57.920Z,98136.78
2022-08-18T13:43:34.241Z,98134.09
2022-08-18T13:46:02.443Z,98135.41
2022-08-18T13:48:31.860Z,98157.00
2022-08-18T13:51:02.017Z,98157.41
2022-08-18T13:53:31.698Z,98142.28
2022-08-18T13:55:59.366Z,98140.63
2022-08-18T13:58:29.216Z,98136.06
2022-08-18T14:01:39.816Z,98140.00
2022-08-18T14:03:53.581Z,98139.81
2022-08-18T14:06:24.151Z,98143.72
2022-08-18T14:08:53.389Z,98133.16
2022-08-18T14:11:33.204Z,98138.72
2022-08-18T14:14:02.074Z,98129.44
2022-08-18T14:16:28.842Z,98132.75
2022-08-18T14:19:14.190Z,98132.13
2022-08-18T14:22:11.088Z,98123.63
2022-08-18T14:24:59.816Z,98122.38
2022-08-18T14:27:38.721Z,98122.38
2022-08-18T14:30:11.211Z,98121.97
2022-08-18T14:32:48.914Z,98121.09
2022-08-18T14:35:33.818Z,98126.94
2022-08-18T14:38:09.779Z,98129.41
2022-08-18T14:40:41.762Z,98137.72
2022-08-18T14:43:14.133Z,98140.59
2022-08-18T14:45:48.959Z,98135.66
2022-08-18T14:48:21.507Z,98132.34
2022-08-18T14:50:52.482Z,98136.69
2022-08-18T14:53:23.475Z,98129.25
2022-08-18T14:55:52.573Z,98131.72
2022-08-18T14:58:27.622Z,98123.00
2022-08-18T15:00:58.308Z,98119.91
2022-08-18T15:03:31.620Z,98115.34
2022-08-18T15:06:00.970Z,98114.91
2022-08-18T15:08:36.135Z,98133.97
2022-08-18T15:11:11.763Z,98123.63
2022-08-18T15:13:41.737Z,98121.34
2022-08-18T15:16:13.350Z,98114.50
2022-08-18T15:18:45.539Z,98113.22
2022-08-18T15:21:34.848Z,98110.34
2022-08-18T15:24:23.997Z,98110.53
2022-08-18T15:27:03.266Z,98119.63
2022-08-18T15:29:33.863Z,98116.50
2022-08-18T15:32:05.741Z,98125.63
2022-08-18T15:34:46.376Z,98117.97
2022-08-18T15:37:15.891Z,98115.72
2022-08-18T15:39:51.679Z,98110.34
2022-08-18T15:42:19.098Z,98110.53
2022-08-18T15:44:46.054Z,98107.81
2022-08-18T15:47:12.638Z,98110.75
2022-08-18T15:49:39.207Z,98104.53
2022-08-18T15:52:06.775Z,98099.56
2022-08-18T15:54:42.255Z,98094.19
2022-08-18T15:57:39.004Z,98100.63
2022-08-18T16:00:01.276Z,98102.50
2022-08-18T16:02:27.799Z,98108.50
2022-08-18T16:04:54.601Z,98111.41
2022-08-18T16:07:40.043Z,98106.84
2022-08-18T16:10:08.051Z,98109.94
2022-08-18T16:12:34.588Z,98112.25
2022-08-18T16:15:03.699Z,98109.53
2022-08-18T16:17:35.425Z,98109.97
2022-08-18T16:20:02.041Z,98121.56
2022-08-18T16:22:29.138Z,98114.50
2022-08-18T16:24:55.751Z,98121.75
2022-08-18T16:27:22.238Z,98116.56
2022-08-18T16:29:49.539Z,98113.50
2022-08-18T16:32:16.764Z,98108.28
2022-08-18T16:34:43.403Z,98108.47
2022-08-18T16:37:10.383Z,98115.94
2022-08-18T16:39:37.042Z,98121.72
2022-08-18T16:42:04.167Z,98123.16
2022-08-18T16:44:32.699Z,98127.28
2022-08-18T16:47:01.550Z,98122.31
2022-08-18T16:49:28.839Z,98124.41
2022-08-18T16:51:55.683Z,98121.06
2022-08-18T16:54:22.569Z,98127.28
2022-08-18T16:56:49.094Z,98124.81
2022-08-18T16:59:34.444Z,98112.19
2022-08-18T17:02:19.909Z,98109.84
2022-08-18T17:04:46.457Z,98114.78
2022-08-18T17:07:13.005Z,98112.31
2022-08-18T17:09:39.555Z,98108.72
2022-08-18T17:12:06.274Z,98109.38
2022-08-18T17:14:33.579Z,98105.00
2022-08-18T17:17:00.918Z,98092.38
2022-08-18T17:19:33.527Z,98099.41
2022-08-18T17:22:02.987Z,98091.75
2022-08-18T17:24:31.959Z,98092.38
2022-08-18T17:27:27.655Z,98085.09
2022-08-18T17:30:18.527Z,98081.34
2022-08-18T17:32:54.186Z,98078.22
2022-08-18T17:35:33.181Z,98072.78
2022-08-18T17:38:23.200Z,98073.41
2022-08-18T17:40:54.421Z,98073.25
2022-08-18T17:43:30.443Z,98078.38
2022-08-18T17:46:01.187Z,98071.00
2022-08-18T17:48:37.605Z,98075.00
2022-08-18T17:51:32.227Z,98071.91
2022-08-18T17:54:02.460Z,98078.97
2022-08-18T17:56:42.320Z,98088.03
2022-08-18T17:59:51.298Z,98090.72
2022-08-18T18:02:29.698Z,98083.47
2022-08-18T18:05:09.260Z,98084.28
2022-08-18T18:07:45.003Z,98089.03
2022-08-18T18:10:51.077Z,98089.97
2022-08-18T18:13:32.227Z,98082.06
2022-08-18T18:16:27.909Z,98095.06
2022-08-18T18:19:14.696Z,98095.22
2022-08-18T18:22:00.530Z,98093.09
2022-08-18T18:24:33.408Z,98097.25
2022-08-18T18:27:00.445Z,98092.78
2022-08-18T18:29:38.272Z,98095.25
2022-08-18T18:32:50.430Z,98087.56
2022-08-18T18:35:34.171Z,98090.72
2022-08-18T18:38:21.771Z,98100.22
2022-08-18T18:40:58.809Z,98101.84
2022-08-18T18:43:45.900Z,98104.28
2022-08-18T18:46:31.096Z,98108.91
2022-08-18T18:49:18.856Z,98110.53
2022-08-18T18:52:45.479Z,98108.16
2022-08-18T18:55:24.599Z,98112.31
2022-08-18T18:58:12.375Z,98113.25
2022-08-18T19:00:59.448Z,98111.38
2022-08-18T19:03:56.715Z,98111.06
2022-08-18T19:06:37.926Z,98110.69
2022-08-18T19:10:10.495Z,98106.31
2022-08-18T19:12:52.604Z,98123.56
2022-08-18T19:15:21.106Z,98130.56
2022-08-18T19:18:08.901Z,98132.97
2022-08-18T19:21:44.763Z,98143.41
2022-08-18T19:24:02.380Z,98141.22
2022-08-18T19:26:40.386Z,98144.06
2022-08-18T19:29:23.074Z,98142.16
2022-08-18T19:32:16.352Z,98144.19
2022-08-18T19:34:51.371Z,98145.94
2022-08-18T19:37:32.223Z,98146.25
2022-08-18T19:40:23.955Z,98152.53
2022-08-18T19:43:12.340Z,98152.44
2022-08-18T19:46:10.982Z,98146.78
2022-08-18T19:49:03.534Z,98148.69
2022-08-18T19:51:37.453Z,98142.03
2022-08-18T19:54:11.129Z,98138.72
2022-08-18T19:57:03.406Z,98143.59
2022-08-18T19:59:47.087Z,98148.81
2022-08-18T20:02:35.191Z,98155.28
2022-08-18T20:05:30.559Z,98158.81
2022-08-18T20:08:28.563Z,98152.66
2022-08-18T20:11:20.866Z,98151.00
2022-08-18T20:14:12.576Z,98148.88
2022-08-18T20:16:44.548Z,98150.88
2022-08-18T20:19:51.807Z,98144.53
2022-08-18T20:22:27.010Z,98147.19
2022-08-18T20:25:06.079Z,98142.19
2022-08-18T20:27:41.827Z,98143.66
2022-08-18T20:31:15.520Z,98149.19
2022-08-18T20:34:14.074Z,98143.16
2022-08-18T20:36:43.677Z,98134.31
2022-08-18T20:39:47.593Z,98134.31
2022-08-18T20:42:24.552Z,98136.81
2022-08-18T20:44:57.650Z,98128.81
2022-08-18T20:47:48.442Z,98131.75
2022-08-18T20:50:37.515Z,98139.09
2022-08-18T20:53:22.731Z,98140.75
2022-08-18T20:56:46.399Z,98147.88
2022-08-18T20:59:30.515Z,98145.72
2022-08-18T21:02:26.232Z,98152.69
2022-08-18T21:04:57.752Z,98149.31
2022-08-18T21:07:38.227Z,98147.66
2022-08-18T21:10:22.972Z,98151.63
2022-08-18T21:12:55.794Z,98146.09
2022-08-18T21:15:35.388Z,98142.25
2022-08-18T21:18:18.640Z,98147.53
2022-08-18T21:20:48.916Z,98143.31
2022-08-18T21:23:29.294Z,98143.84
2022-08-18T21:26:06.620Z,98148.16
2022-08-18T21:28:37.803Z,98148.16
2022-08-18T21:31:43.606Z,98145.81
2022-08-18T21:34:30.504Z,98149.75
2022-08-18T21:37:00.518Z,98147.50
2022-08-18T21:39:27.037Z,98154.13
2022-08-18T21:41:56.963Z,98148.97
2022-08-18T21:44:42.288Z,98153.75
2022-08-18T21:47:21.585Z,98155.25
2022-08-18T21:50:29.056Z,98150.72
2022-08-18T21:52:59.987Z,98161.75
2022-08-18T21:55:35.748Z,98165.19
2022-08-18T21:58:16.638Z,98170.91
2022-08-18T22:01:10.576Z,98174.88
2022-08-18T22:03:59.140Z,98165.38
2022-08-18T22:06:36.649Z,98167.88
2022-08-18T22:09:48.287Z,98168.56
2022-08-18T22:12:48.758Z,98179.91
2022-08-18T22:15:27.065Z,98169.63
2022-08-18T22:18:26.391Z,98177.53
2022-08-18T22:21:00.859Z,98178.31
2022-08-18T22:24:03.661Z,98175.47
2022-08-18T22:26:36.689Z,98174.47
2022-08-18T22:29:06.410Z,98177.91
2022-08-18T22:31:38.899Z,98181.16
2022-08-18T22:34:28.227Z,98178.28
2022-08-18T22:37:09.800Z,98172.50
2022-08-18T22:39:53.597Z,98168.56
2022-08-18T22:42:25.811Z,98172.41
2022-08-18T22:44:53.110Z,98178.97
2022-08-18T22:47:20.078Z,98184.22
2022-08-18T22:49:47.254Z,98175.78
2022-08-18T22:52:29.754Z,98177.06
2022-08-18T22:54:59.655Z,98168.13
2022-08-18T22:57:29.370Z,98178.31
2022-08-18T22:59:56.600Z,98179.28
2022-08-18T23:02:24.703Z,98176.09
2022-08-18T23:04:51.240Z,98170.91
2022-08-18T23:07:22.554Z,98176.00
2022-08-18T23:09:49.084Z,98176.06
2022-08-18T23:12:17.104Z,98180.88
2022-08-18T23:14:46.438Z,98176.38
2022-08-18T23:17:14.060Z,98170.28
2022-08-18T23:19:40.886Z,98175.19
2022-08-18T23:22:09.535Z,98171.59
2022-08-18T23:24:38.515Z,98172.16
2022-08-18T23:27:06.149Z,98173.22
2022-08-18T23:29:36.568Z,98168.47
2022-08-18T23:32:07.919Z,98171.75
2022-08-18T23:34:36.000Z,98173.59
2022-08-18T23:37:04.487Z,98180.66
2022-08-18T23:39:34.808Z,98181.34
2022-08-18T23:42:03.751Z,98186.97
2022-08-18T23:44:30.790Z,98192.94
2022-08-18T23:46:59.790Z,98197.88
2022-08-18T23:49:28.599Z,98189.44
2022-08-18T23:51:56.013Z,98194.34
2022-08-18T23:54:32.183Z,98196.94
2022-08-18T23:56:59.482Z,98200.06
2022-08-18T23:59:28.498Z,98206.94
